Etusivu
METAR-TAF:

METAR-TAF

Lentoasemat :

Auckland, Uusi-Seelanti

Aucklandin lentoasema

Leveyspiiri: 37-01S, Pituuspiiri: 174-48E, korkeus merenpinnasta: 7 m

Tämänhetkinen sää

Tämä raportti tehtiin 24 minuuttia sitten, kello 19.00 UTC
Tuuli 9 kn etelästä/kaakosta
Lämpötila 16°C
Kosteus 68%
Ilmanpaine 1012 hPa
Näkyvyys 10 km tai enemmän

METAR: NZAA 191900Z AUTO 16009KT 9999 OVC070/// 16/10 Q1012 NOSIG

Aika: 08:24 (19:24 UTC)

Sääennuste

Tämä raportti tehtiin 2 tuntia ja 20 minuuttia sitten, kello 17.04 UTC
Ennuste voimassa 19. päivästä klo 18 UTC - 20. päivään klo 18 UTC
Tuuli 8 kn etelästä/kaakosta
Näkyvyys 10 km tai enemmän
Muutamia pilviä 5000 ft:n korkeudessa
Tulossa
19. päivästä klo 23 UTC - 20. päivään klo 01 UTC
Tuuli 10 kn lännestä/lounaasta
Tulossa
20. päivästä klo 07 UTC - 20. päivään klo 09 UTC
Tuuli 2 kn eri suunnista

TAF: NZAA 191704Z 1918/2018 16008KT 9999 FEW050 BECMG 1923/2001 24010KT BECMG 2007/2009 VRB02KT

Säähavainnot ja -ennusteet yli 4000 lentoasemalta (METAR- ja TAF-raportit).

Käytössä olevat sääasemat on merkitty karttaan keltaisilla ja punaisilla pisteillä.

Aseta hiiri pisteen päälle nähdäksesi sääaseman nimen.

Klikkaa sitten nähdäksesi säähavainnot ja -ennusteet.

Kartan vaihtaminen: klikkaa mustalla rastilla varustettuja vihreitä pisteitä, niin voit zoomata sisään; viivalla varustettua vihreää pistettä, niin voit zoomata ulos tai vihreitä nuolia, niin pääset viereisille kartoille.


METAR-TAF: